createdAt,value
2019-03-11T00:01:39.705Z,100.00
2019-03-11T00:04:12.362Z,100.00
2019-03-11T00:06:44.878Z,100.00
2019-03-11T00:09:16.709Z,100.00
2019-03-11T00:11:48.860Z,100.00
2019-03-11T00:14:20.665Z,100.00
2019-03-11T00:16:52.487Z,100.00
2019-03-11T00:19:24.193Z,100.00
2019-03-11T00:21:55.984Z,100.00
2019-03-11T00:24:27.776Z,99.72
2019-03-11T00:26:59.489Z,99.26
2019-03-11T00:29:31.333Z,99.15
2019-03-11T00:32:03.333Z,98.89
2019-03-11T00:34:35.539Z,97.82
2019-03-11T00:37:07.278Z,97.43
2019-03-11T00:39:39.249Z,97.39
2019-03-11T00:42:11.044Z,97.42
2019-03-11T00:44:43.082Z,97.84
2019-03-11T00:47:14.863Z,98.17
2019-03-11T00:49:46.682Z,98.86
2019-03-11T00:52:18.348Z,99.01
2019-03-11T00:54:51.363Z,98.92
2019-03-11T00:57:23.150Z,99.14
2019-03-11T00:59:55.398Z,99.14
2019-03-11T01:02:27.250Z,98.99
2019-03-11T01:04:59.212Z,98.79
2019-03-11T01:07:31.114Z,98.92
2019-03-11T01:10:03.031Z,99.36
2019-03-11T01:12:34.761Z,99.64
2019-03-11T01:15:07.024Z,99.58
2019-03-11T01:17:38.748Z,99.76
2019-03-11T01:20:10.720Z,99.89
2019-03-11T01:22:42.898Z,100.00
2019-03-11T01:25:14.694Z,100.00
2019-03-11T01:27:46.311Z,99.74
2019-03-11T01:30:18.536Z,99.77
2019-03-11T01:32:50.600Z,99.67
2019-03-11T01:35:22.698Z,99.85
2019-03-11T01:37:54.881Z,99.43
2019-03-11T01:40:26.677Z,99.48
2019-03-11T01:42:59.020Z,99.81
2019-03-11T01:45:30.840Z,100.00
2019-03-11T01:48:02.660Z,100.00
2019-03-11T01:50:34.680Z,100.00
2019-03-11T01:53:07.085Z,100.00
2019-03-11T01:55:39.227Z,100.00
2019-03-11T01:58:10.982Z,100.00
2019-03-11T02:00:43.058Z,100.00
2019-03-11T02:03:15.018Z,100.00
2019-03-11T02:05:47.032Z,100.00
2019-03-11T02:08:19.060Z,100.00
2019-03-11T02:10:51.206Z,100.00
2019-03-11T02:13:23.153Z,100.00
2019-03-11T02:15:55.359Z,100.00
2019-03-11T02:18:27.235Z,100.00
2019-03-11T02:20:59.626Z,100.00
2019-03-11T02:23:31.221Z,100.00
2019-03-11T02:26:02.939Z,100.00
2019-03-11T02:28:34.656Z,100.00
2019-03-11T02:31:06.298Z,100.00
2019-03-11T02:33:38.005Z,100.00
2019-03-11T02:36:10.003Z,100.00
2019-03-11T02:38:42.302Z,100.00
2019-03-11T02:41:14.672Z,100.00
2019-03-11T02:43:46.744Z,100.00
2019-03-11T02:46:18.359Z,100.00
2019-03-11T02:48:50.305Z,100.00
2019-03-11T02:51:22.451Z,100.00
2019-03-11T02:53:54.301Z,100.00
2019-03-11T02:56:26.457Z,100.00
2019-03-11T02:58:58.577Z,100.00
2019-03-11T03:01:52.770Z,100.00
2019-03-11T03:04:43.371Z,100.00
2019-03-11T03:07:15.646Z,100.00
2019-03-11T03:09:47.566Z,100.00
2019-03-11T03:12:20.007Z,100.00
2019-03-11T03:14:51.716Z,100.00
2019-03-11T03:17:23.303Z,100.00
2019-03-11T03:19:55.352Z,100.00
2019-03-11T03:22:27.073Z,100.00
2019-03-11T03:24:58.655Z,100.00
2019-03-11T03:27:30.337Z,100.00
2019-03-11T03:30:01.922Z,100.00
2019-03-11T03:32:33.601Z,100.00
2019-03-11T03:35:05.677Z,100.00
2019-03-11T03:37:37.282Z,100.00
2019-03-11T03:40:09.283Z,100.00
2019-03-11T03:42:41.062Z,100.00
2019-03-11T03:45:33.668Z,100.00
2019-03-11T03:48:05.363Z,100.00
2019-03-11T03:50:39.345Z,100.00
2019-03-11T03:53:11.334Z,100.00
2019-03-11T03:55:42.915Z,100.00
2019-03-11T03:58:14.469Z,100.00
2019-03-11T04:00:46.267Z,100.00
2019-03-11T04:03:17.997Z,100.00
2019-03-11T04:05:49.747Z,100.00
2019-03-11T04:08:21.597Z,100.00
2019-03-11T04:10:53.813Z,100.00
2019-03-11T04:13:25.751Z,100.00
2019-03-11T04:15:57.517Z,100.00
2019-03-11T04:18:54.330Z,100.00
2019-03-11T04:21:26.476Z,100.00
2019-03-11T04:23:58.279Z,100.00
2019-03-11T04:26:36.441Z,100.00
2019-03-11T04:29:08.148Z,100.00
2019-03-11T04:31:39.821Z,100.00
2019-03-11T04:34:12.096Z,100.00
2019-03-11T04:36:44.564Z,100.00
2019-03-11T04:39:16.152Z,100.00
2019-03-11T04:41:47.791Z,100.00
2019-03-11T04:44:20.104Z,100.00
2019-03-11T04:46:51.932Z,100.00
2019-03-11T04:49:24.310Z,100.00
2019-03-11T04:51:56.808Z,100.00
2019-03-11T04:54:28.578Z,100.00
2019-03-11T04:57:00.801Z,100.00
2019-03-11T04:59:32.621Z,100.00
2019-03-11T05:02:04.914Z,100.00
2019-03-11T05:04:36.723Z,100.00
2019-03-11T05:07:08.850Z,100.00
2019-03-11T05:09:40.661Z,100.00
2019-03-11T05:12:12.580Z,100.00
2019-03-11T05:14:44.399Z,100.00
2019-03-11T05:17:16.155Z,100.00
2019-03-11T05:19:48.023Z,100.00
2019-03-11T05:22:19.888Z,100.00
2019-03-11T05:24:51.684Z,100.00
2019-03-11T05:27:23.740Z,100.00
2019-03-11T05:29:55.676Z,100.00
2019-03-11T05:32:27.483Z,100.00
2019-03-11T05:34:59.251Z,100.00
2019-03-11T05:37:31.152Z,100.00
2019-03-11T05:40:03.070Z,100.00
2019-03-11T05:42:35.591Z,100.00
2019-03-11T05:45:08.812Z,100.00
2019-03-11T05:47:40.364Z,100.00
2019-03-11T05:50:13.721Z,100.00
2019-03-11T05:52:45.747Z,100.00
2019-03-11T05:55:18.018Z,100.00
2019-03-11T05:57:50.414Z,100.00
2019-03-11T06:00:26.170Z,100.00
2019-03-11T06:02:58.173Z,100.00
2019-03-11T06:05:30.653Z,100.00
2019-03-11T06:08:03.051Z,100.00
2019-03-11T06:10:34.842Z,100.00
2019-03-11T06:13:06.944Z,100.00
2019-03-11T06:15:38.631Z,100.00
2019-03-11T06:18:11.022Z,100.00
2019-03-11T06:20:50.717Z,100.00
2019-03-11T06:23:22.808Z,100.00
2019-03-11T06:25:55.000Z,100.00
2019-03-11T06:28:27.209Z,100.00
2019-03-11T06:30:59.568Z,100.00
2019-03-11T06:33:31.611Z,100.00
2019-03-11T06:36:03.412Z,100.00
2019-03-11T06:38:35.325Z,100.00
2019-03-11T06:41:07.167Z,100.00
2019-03-11T06:43:39.239Z,100.00
2019-03-11T06:46:11.434Z,100.00
2019-03-11T06:48:43.258Z,100.00
2019-03-11T06:51:16.115Z,100.00
2019-03-11T06:53:48.120Z,100.00
2019-03-11T06:56:19.725Z,100.00
2019-03-11T06:58:51.942Z,100.00
2019-03-11T07:01:24.376Z,100.00
2019-03-11T07:03:56.623Z,100.00
2019-03-11T07:06:28.894Z,100.00
2019-03-11T07:09:01.109Z,100.00
2019-03-11T07:11:32.862Z,100.00
2019-03-11T07:14:05.005Z,100.00
2019-03-11T07:16:36.711Z,100.00
2019-03-11T07:19:09.236Z,100.00
2019-03-11T07:21:41.999Z,100.00
2019-03-11T07:24:13.767Z,100.00
2019-03-11T07:26:46.205Z,100.00
2019-03-11T07:29:19.083Z,100.00
2019-03-11T07:31:51.787Z,100.00
2019-03-11T07:34:24.444Z,100.00
2019-03-11T07:36:56.460Z,100.00
2019-03-11T07:39:28.483Z,100.00
2019-03-11T07:42:00.317Z,100.00
2019-03-11T07:44:33.016Z,100.00
2019-03-11T07:47:05.179Z,100.00
2019-03-11T07:49:38.188Z,100.00
2019-03-11T07:52:09.936Z,100.00
2019-03-11T07:54:42.154Z,100.00
2019-03-11T07:57:14.095Z,100.00
2019-03-11T07:59:46.176Z,100.00
2019-03-11T08:02:18.489Z,100.00
2019-03-11T08:04:50.427Z,99.35
2019-03-11T08:07:22.334Z,100.00
2019-03-11T08:09:54.499Z,100.00
2019-03-11T08:12:26.936Z,99.15
2019-03-11T08:14:59.777Z,99.31
2019-03-11T08:17:31.823Z,99.79
2019-03-11T08:20:04.242Z,100.00
2019-03-11T08:22:36.444Z,100.00
2019-03-11T08:25:08.759Z,100.00
2019-03-11T08:27:41.160Z,100.00
2019-03-11T08:30:14.228Z,100.00
2019-03-11T08:32:46.877Z,100.00
2019-03-11T08:35:19.152Z,100.00
2019-03-11T08:37:50.988Z,100.00
2019-03-11T08:40:23.709Z,100.00
2019-03-11T08:42:57.048Z,100.00
2019-03-11T08:45:29.432Z,100.00
2019-03-11T08:48:02.708Z,100.00
2019-03-11T08:50:35.757Z,100.00
2019-03-11T08:53:07.560Z,100.00
2019-03-11T08:55:40.048Z,100.00
2019-03-11T08:58:13.795Z,98.83
2019-03-11T09:00:46.178Z,96.60
2019-03-11T09:03:17.972Z,89.91
2019-03-11T09:05:50.135Z,84.96
2019-03-11T09:08:22.523Z,82.69
2019-03-11T09:10:55.023Z,77.73
2019-03-11T09:13:27.524Z,77.89
2019-03-11T09:16:01.222Z,74.48
2019-03-11T09:18:32.987Z,74.42
2019-03-11T09:21:05.782Z,75.29
2019-03-11T09:23:38.218Z,79.54
2019-03-11T09:26:09.938Z,80.25
2019-03-11T09:28:42.463Z,82.66
2019-03-11T09:31:14.505Z,83.84
2019-03-11T09:33:48.189Z,85.49
2019-03-11T09:36:20.541Z,81.75
2019-03-11T09:38:52.449Z,80.06
2019-03-11T09:41:25.509Z,79.04
2019-03-11T09:43:57.458Z,81.68
2019-03-11T09:46:30.218Z,78.64
2019-03-11T09:49:02.315Z,77.31
2019-03-11T09:51:34.314Z,78.70
2019-03-11T09:54:06.434Z,77.98
2019-03-11T09:56:43.325Z,73.79
2019-03-11T09:59:12.199Z,70.71
2019-03-11T10:01:44.698Z,66.73
2019-03-11T10:04:17.114Z,62.90
2019-03-11T10:06:49.026Z,63.21
2019-03-11T10:09:20.896Z,59.22
2019-03-11T10:11:53.823Z,57.32
2019-03-11T10:14:25.748Z,57.71
2019-03-11T10:16:58.342Z,54.25
2019-03-11T10:19:30.177Z,54.17
2019-03-11T10:22:02.599Z,52.41
2019-03-11T10:24:34.539Z,51.92
2019-03-11T10:27:06.691Z,50.16
2019-03-11T10:29:38.461Z,49.20
2019-03-11T10:32:10.210Z,47.14
2019-03-11T10:34:42.171Z,48.88
2019-03-11T10:37:14.507Z,49.26
2019-03-11T10:39:48.108Z,48.93
2019-03-11T10:42:20.724Z,46.53
2019-03-11T10:44:52.494Z,45.79
2019-03-11T10:47:24.576Z,43.88
2019-03-11T10:49:56.724Z,44.55
2019-03-11T10:52:28.703Z,46.08
2019-03-11T10:55:00.934Z,46.64
2019-03-11T10:57:33.430Z,45.97
2019-03-11T11:00:07.444Z,44.05
2019-03-11T11:02:39.237Z,40.19
2019-03-11T11:05:12.575Z,35.23
2019-03-11T11:07:44.949Z,32.86
2019-03-11T11:10:17.442Z,30.44
2019-03-11T11:12:50.568Z,28.35
2019-03-11T11:15:24.495Z,28.05
2019-03-11T11:17:56.584Z,26.35
2019-03-11T11:20:28.701Z,26.81
2019-03-11T11:23:00.998Z,26.90
2019-03-11T11:25:34.791Z,30.13
2019-03-11T11:28:07.318Z,31.57
2019-03-11T11:30:39.262Z,29.48
2019-03-11T11:35:41.722Z,29.39
2019-03-11T11:38:13.587Z,29.95
2019-03-11T11:40:45.887Z,31.11
2019-03-11T11:43:18.413Z,34.03
2019-03-11T11:45:50.347Z,34.44
2019-03-11T11:48:22.371Z,33.58
2019-03-11T11:50:54.075Z,34.65
2019-03-11T11:53:26.178Z,34.26
2019-03-11T11:55:58.379Z,35.63
2019-03-11T11:58:30.292Z,36.14
2019-03-11T12:01:02.309Z,37.43
2019-03-11T12:03:34.388Z,37.45
2019-03-11T12:06:08.196Z,37.85
2019-03-11T12:08:40.093Z,38.69
2019-03-11T12:11:12.134Z,38.07
2019-03-11T12:13:44.658Z,40.09
2019-03-11T12:16:16.485Z,40.16
2019-03-11T12:18:48.798Z,41.42
2019-03-11T12:21:21.111Z,41.11
2019-03-11T12:23:53.211Z,40.76
2019-03-11T12:26:25.014Z,38.45
2019-03-11T12:28:57.232Z,36.29
2019-03-11T12:31:30.718Z,32.56
2019-03-11T12:34:03.444Z,29.65
2019-03-11T12:36:36.323Z,28.17
2019-03-11T12:39:10.354Z,28.47
2019-03-11T12:41:42.650Z,29.55
2019-03-11T12:44:14.631Z,29.75
2019-03-11T12:46:47.011Z,29.71
2019-03-11T12:49:20.183Z,29.43
2019-03-11T12:51:52.512Z,28.10
2019-03-11T12:54:24.701Z,28.28
2019-03-11T12:56:56.567Z,27.82
2019-03-11T12:59:28.437Z,26.21
2019-03-11T13:02:00.435Z,27.40
2019-03-11T13:04:32.526Z,27.49
2019-03-11T13:07:04.921Z,29.98
2019-03-11T13:09:37.324Z,28.71
2019-03-11T13:12:09.184Z,31.44
2019-03-11T13:14:41.537Z,29.29
2019-03-11T13:17:15.368Z,28.23
2019-03-11T13:19:47.766Z,27.85
2019-03-11T13:22:19.904Z,30.15
2019-03-11T13:24:52.312Z,29.53
2019-03-11T13:27:24.353Z,29.54
2019-03-11T13:29:57.014Z,29.50
2019-03-11T13:32:29.946Z,29.65
2019-03-11T13:35:01.880Z,30.50
2019-03-11T13:37:33.845Z,30.37
2019-03-11T13:40:07.544Z,30.08
2019-03-11T13:42:39.689Z,31.65
2019-03-11T13:45:12.684Z,30.85
2019-03-11T13:47:44.880Z,31.44
2019-03-11T13:50:17.554Z,33.30
2019-03-11T13:52:50.281Z,33.10
2019-03-11T13:55:23.606Z,33.02
2019-03-11T13:57:56.154Z,32.05
2019-03-11T14:00:28.020Z,29.64
2019-03-11T14:03:00.729Z,29.78
2019-03-11T14:05:32.688Z,31.11
2019-03-11T14:08:05.089Z,29.55
2019-03-11T14:10:38.253Z,28.37
2019-03-11T14:13:10.479Z,27.63
2019-03-11T14:15:43.216Z,27.13
2019-03-11T14:18:15.414Z,27.02
2019-03-11T14:20:47.583Z,29.25
2019-03-11T14:23:21.577Z,27.79
2019-03-11T14:25:55.578Z,26.98
2019-03-11T14:28:27.838Z,26.05
2019-03-11T14:31:02.082Z,26.08
2019-03-11T14:33:34.340Z,25.34
2019-03-11T14:36:07.176Z,24.84
2019-03-11T14:38:40.438Z,26.50
2019-03-11T14:41:13.549Z,29.93
2019-03-11T14:43:45.351Z,28.15
2019-03-11T14:46:17.120Z,27.48
2019-03-11T14:48:49.689Z,27.18
2019-03-11T14:51:21.313Z,27.24
2019-03-11T14:53:53.323Z,27.42
2019-03-11T14:56:27.068Z,27.50
2019-03-11T14:58:59.292Z,27.48
2019-03-11T15:01:32.288Z,25.28
2019-03-11T15:04:04.839Z,23.27
2019-03-11T15:06:37.137Z,25.20
2019-03-11T15:09:10.451Z,27.61
2019-03-11T15:11:42.767Z,28.63
2019-03-11T15:14:15.361Z,29.38
2019-03-11T15:16:47.858Z,29.58
2019-03-11T15:19:21.597Z,29.17
2019-03-11T15:21:54.242Z,30.26
2019-03-11T15:24:26.819Z,31.22
2019-03-11T15:26:58.885Z,29.90
2019-03-11T15:29:32.504Z,25.73
2019-03-11T15:32:05.062Z,26.60
2019-03-11T15:34:36.967Z,26.06
2019-03-11T15:37:08.994Z,25.78
2019-03-11T15:39:41.314Z,26.52
2019-03-11T15:42:14.088Z,28.23
2019-03-11T15:44:46.465Z,29.08
2019-03-11T15:47:18.682Z,30.10
2019-03-11T15:49:51.427Z,29.45
2019-03-11T15:52:23.538Z,29.16
2019-03-11T15:54:55.542Z,29.68
2019-03-11T15:57:27.662Z,32.28
2019-03-11T15:59:59.872Z,33.09
2019-03-11T16:02:32.294Z,33.93
2019-03-11T16:05:04.431Z,35.51
2019-03-11T16:07:39.190Z,34.71
2019-03-11T16:10:16.676Z,36.71
2019-03-11T16:12:48.437Z,36.63
2019-03-11T16:15:22.712Z,37.78
2019-03-11T16:17:55.018Z,39.40
2019-03-11T16:20:27.770Z,38.07
2019-03-11T16:22:59.566Z,39.64
2019-03-11T16:25:32.549Z,39.15
2019-03-11T16:28:04.722Z,39.00
2019-03-11T16:30:37.011Z,38.83
2019-03-11T16:33:09.569Z,37.92
2019-03-11T16:35:41.404Z,39.34
2019-03-11T16:38:13.415Z,40.02
2019-03-11T16:40:45.711Z,39.77
2019-03-11T16:43:18.042Z,38.50
2019-03-11T16:45:50.082Z,39.04
2019-03-11T16:48:22.273Z,38.45
2019-03-11T16:50:54.840Z,37.64
2019-03-11T16:53:27.384Z,41.34
2019-03-11T16:56:00.175Z,43.61
2019-03-11T16:58:32.654Z,44.57
2019-03-11T17:01:08.100Z,45.77
2019-03-11T17:03:40.228Z,46.10
2019-03-11T17:06:12.272Z,46.77
2019-03-11T17:08:45.575Z,47.28
2019-03-11T17:11:19.327Z,47.90
2019-03-11T17:13:52.340Z,48.55
2019-03-11T17:16:24.004Z,48.77
2019-03-11T17:18:57.168Z,49.25
2019-03-11T17:21:30.458Z,49.57
2019-03-11T17:24:04.001Z,49.45
2019-03-11T17:26:37.645Z,49.90
2019-03-11T17:29:10.739Z,49.63
2019-03-11T17:31:43.632Z,49.69
2019-03-11T17:34:16.509Z,50.23
2019-03-11T17:36:50.029Z,52.65
2019-03-11T17:39:23.365Z,56.02
2019-03-11T17:41:56.796Z,60.45
2019-03-11T17:44:30.287Z,67.15
2019-03-11T17:47:05.079Z,74.64
2019-03-11T17:49:38.838Z,81.24
2019-03-11T17:52:12.260Z,84.66
2019-03-11T17:54:44.809Z,86.70
2019-03-11T17:57:18.549Z,88.52
2019-03-11T17:59:51.070Z,91.19
2019-03-11T18:02:24.240Z,91.99
2019-03-11T18:04:57.672Z,93.65
2019-03-11T18:07:31.215Z,94.93
2019-03-11T18:10:04.748Z,96.45
2019-03-11T18:12:38.852Z,96.91
2019-03-11T18:15:13.129Z,98.18
2019-03-11T18:17:46.741Z,96.89
2019-03-11T18:20:21.015Z,92.97
2019-03-11T18:22:55.150Z,90.36
2019-03-11T18:25:28.335Z,89.22
2019-03-11T18:28:27.025Z,90.96
2019-03-11T18:31:01.132Z,90.82
2019-03-11T18:33:34.627Z,91.67
2019-03-11T18:36:09.078Z,93.03
2019-03-11T18:38:42.836Z,93.79
2019-03-11T18:41:16.375Z,92.23
2019-03-11T18:43:50.321Z,92.80
2019-03-11T18:46:24.145Z,94.68
2019-03-11T18:48:58.064Z,93.82
2019-03-11T18:51:31.292Z,92.62
2019-03-11T18:54:04.919Z,91.43
2019-03-11T18:56:38.872Z,92.31
2019-03-11T18:59:14.899Z,92.16
2019-03-11T19:01:48.563Z,91.65
2019-03-11T19:04:21.521Z,90.20
2019-03-11T19:06:54.501Z,85.28
2019-03-11T19:09:27.593Z,84.97
2019-03-11T19:12:00.184Z,83.19
2019-03-11T19:14:33.671Z,81.14
2019-03-11T19:17:06.130Z,79.76
2019-03-11T19:19:46.210Z,80.75
2019-03-11T19:22:14.637Z,79.89
2019-03-11T19:24:49.889Z,76.74
2019-03-11T19:27:23.025Z,76.44
2019-03-11T19:29:55.606Z,78.01
2019-03-11T19:32:29.339Z,77.79
2019-03-11T19:35:02.437Z,78.38
2019-03-11T19:37:36.272Z,77.06
2019-03-11T19:40:10.066Z,78.73
2019-03-11T19:42:44.941Z,78.99
2019-03-11T19:45:19.096Z,79.80
2019-03-11T19:47:51.793Z,82.13
2019-03-11T19:50:24.182Z,83.28
2019-03-11T19:52:59.227Z,84.79
2019-03-11T19:55:31.872Z,85.87
2019-03-11T19:58:05.621Z,86.68
2019-03-11T20:00:38.909Z,87.31
2019-03-11T20:03:23.640Z,86.16
2019-03-11T20:05:46.144Z,84.86
2019-03-11T20:08:19.403Z,84.57
2019-03-11T20:10:54.029Z,81.81
2019-03-11T20:13:27.793Z,81.13
2019-03-11T20:16:00.702Z,78.56
2019-03-11T20:18:34.542Z,76.41
2019-03-11T20:21:07.794Z,74.48
2019-03-11T20:23:40.590Z,74.53
2019-03-11T20:26:12.886Z,74.81
2019-03-11T20:28:45.120Z,75.84
2019-03-11T20:31:17.648Z,76.79
2019-03-11T20:33:50.271Z,76.44
2019-03-11T20:36:25.024Z,76.88
2019-03-11T20:38:57.277Z,75.62
2019-03-11T20:41:30.043Z,75.41
2019-03-11T20:44:04.883Z,75.39
2019-03-11T20:46:36.228Z,76.12
2019-03-11T20:49:08.669Z,76.12
2019-03-11T20:51:42.008Z,77.05
2019-03-11T20:54:15.108Z,79.37
2019-03-11T20:56:47.330Z,83.47
2019-03-11T20:59:20.375Z,84.34
2019-03-11T21:01:53.024Z,86.07
2019-03-11T21:04:25.904Z,87.14
2019-03-11T21:06:58.122Z,86.95
2019-03-11T21:09:30.546Z,87.18
2019-03-11T21:12:02.808Z,87.18
2019-03-11T21:14:35.070Z,86.74
2019-03-11T21:17:08.500Z,87.41
2019-03-11T21:19:40.556Z,86.87
2019-03-11T21:22:12.272Z,87.50
2019-03-11T21:24:44.439Z,88.48
2019-03-11T21:27:16.732Z,90.10
2019-03-11T21:29:48.939Z,89.08
2019-03-11T21:32:21.247Z,87.97
2019-03-11T21:34:53.568Z,86.60
2019-03-11T21:37:25.742Z,82.09
2019-03-11T21:39:58.353Z,80.34
2019-03-11T21:42:30.423Z,79.00
2019-03-11T21:45:02.704Z,78.79
2019-03-11T21:47:34.803Z,78.06
2019-03-11T21:50:09.958Z,76.90
2019-03-11T21:52:42.157Z,75.86
2019-03-11T21:55:15.248Z,74.48
2019-03-11T21:57:47.966Z,73.80
2019-03-11T22:00:32.910Z,73.69
2019-03-11T22:02:56.974Z,73.32
2019-03-11T22:05:29.064Z,73.17
2019-03-11T22:08:01.181Z,76.13
2019-03-11T22:10:33.075Z,77.55
2019-03-11T22:13:05.425Z,80.34
2019-03-11T22:15:37.376Z,81.79
2019-03-11T22:18:09.288Z,84.06
2019-03-11T22:20:41.794Z,83.48
2019-03-11T22:23:14.203Z,82.91
2019-03-11T22:25:48.021Z,82.58
2019-03-11T22:28:21.531Z,84.68
2019-03-11T22:30:53.650Z,85.97
2019-03-11T22:33:25.985Z,85.98
2019-03-11T22:35:58.937Z,85.69
2019-03-11T22:38:31.041Z,88.25
2019-03-11T22:41:02.998Z,90.12
2019-03-11T22:43:35.084Z,91.62
2019-03-11T22:46:07.230Z,92.51
2019-03-11T22:48:39.675Z,93.83
2019-03-11T22:51:11.444Z,95.03
2019-03-11T22:53:43.550Z,95.43
2019-03-11T22:56:15.852Z,96.98
2019-03-11T22:58:47.991Z,96.75
2019-03-11T23:01:20.988Z,96.04
2019-03-11T23:03:53.084Z,95.57
2019-03-11T23:06:25.052Z,95.09
2019-03-11T23:08:57.086Z,93.61
2019-03-11T23:11:29.039Z,92.75
2019-03-11T23:14:01.038Z,92.08
2019-03-11T23:16:32.935Z,92.14
2019-03-11T23:19:05.445Z,91.62
2019-03-11T23:21:37.522Z,91.63
2019-03-11T23:24:10.293Z,91.41
2019-03-11T23:26:42.372Z,91.62
2019-03-11T23:29:15.303Z,91.48
2019-03-11T23:31:46.973Z,91.48
2019-03-11T23:34:20.766Z,92.09
2019-03-11T23:36:52.740Z,92.18
2019-03-11T23:39:25.521Z,92.46
2019-03-11T23:41:57.455Z,92.87
2019-03-11T23:44:29.459Z,92.29
2019-03-11T23:47:00.973Z,91.35
2019-03-11T23:49:32.558Z,89.01
2019-03-11T23:52:04.249Z,87.65
2019-03-11T23:54:35.925Z,88.23
2019-03-11T23:57:07.382Z,90.46
2019-03-11T23:59:38.993Z,91.85
